sensor_id;sensor_type;location;lat;lon;timestamp;pressure;altitude;pressure_sealevel;temperature;humidity
20620;BME280;10469;42.720;23.252;2022-09-16T00:00:44;94348.53;;;21.00;100.00
20620;BME280;10469;42.720;23.252;2022-09-16T00:03:10;94340.19;;;20.96;100.00
20620;BME280;10469;42.720;23.252;2022-09-16T00:05:43;94352.50;;;20.94;100.00
20620;BME280;10469;42.720;23.252;2022-09-16T00:08:09;94343.09;;;21.00;100.00
20620;BME280;10469;42.720;23.252;2022-09-16T00:10:35;94350.44;;;20.91;100.00
20620;BME280;10469;42.720;23.252;2022-09-16T00:13:01;94351.88;;;20.97;100.00
20620;BME280;10469;42.720;23.252;2022-09-16T00:15:26;94347.03;;;20.85;100.00
20620;BME280;10469;42.720;23.252;2022-09-16T00:17:52;94343.50;;;20.85;100.00
20620;BME280;10469;42.720;23.252;2022-09-16T00:20:17;94337.88;;;20.81;100.00
20620;BME280;10469;42.720;23.252;2022-09-16T00:22:42;94348.03;;;20.98;100.00
20620;BME280;10469;42.720;23.252;2022-09-16T00:25:08;94333.91;;;20.87;100.00
20620;BME280;10469;42.720;23.252;2022-09-16T00:27:33;94343.41;;;20.98;100.00
20620;BME280;10469;42.720;23.252;2022-09-16T00:29:59;94338.88;;;20.94;100.00
20620;BME280;10469;42.720;23.252;2022-09-16T00:32:24;94349.66;;;20.99;100.00
20620;BME280;10469;42.720;23.252;2022-09-16T00:34:50;94341.97;;;21.01;100.00
20620;BME280;10469;42.720;23.252;2022-09-16T00:37:16;94333.16;;;21.04;100.00
20620;BME280;10469;42.720;23.252;2022-09-16T00:39:41;94345.78;;;20.91;100.00
20620;BME280;10469;42.720;23.252;2022-09-16T00:42:09;94343.25;;;20.95;100.00
20620;BME280;10469;42.720;23.252;2022-09-16T00:44:56;94343.44;;;21.07;100.00
20620;BME280;10469;42.720;23.252;2022-09-16T00:47:32;94338.94;;;21.11;100.00
20620;BME280;10469;42.720;23.252;2022-09-16T00:50:08;94348.94;;;21.16;100.00
20620;BME280;10469;42.720;23.252;2022-09-16T00:52:35;94346.53;;;21.23;100.00
20620;BME280;10469;42.720;23.252;2022-09-16T00:55:05;94343.22;;;21.35;100.00
20620;BME280;10469;42.720;23.252;2022-09-16T00:57:31;94337.78;;;21.43;100.00
20620;BME280;10469;42.720;23.252;2022-09-16T00:59:59;94340.88;;;21.11;100.00
20620;BME280;10469;42.720;23.252;2022-09-16T01:02:26;94332.66;;;21.42;100.00
20620;BME280;10469;42.720;23.252;2022-09-16T01:05:07;94348.06;;;21.46;100.00
20620;BME280;10469;42.720;23.252;2022-09-16T01:07:43;94346.94;;;21.39;100.00
20620;BME280;10469;42.720;23.252;2022-09-16T01:10:11;94350.94;;;21.50;100.00
20620;BME280;10469;42.720;23.252;2022-09-16T01:12:37;94351.59;;;21.47;100.00
20620;BME280;10469;42.720;23.252;2022-09-16T01:15:05;94354.81;;;21.58;100.00
20620;BME280;10469;42.720;23.252;2022-09-16T01:34:34;94355.44;;;21.06;100.00
20620;BME280;10469;42.720;23.252;2022-09-16T01:37:32;94352.31;;;21.21;100.00
20620;BME280;10469;42.720;23.252;2022-09-16T01:40:11;94348.44;;;21.22;100.00
20620;BME280;10469;42.720;23.252;2022-09-16T01:45:52;94333.16;;;21.04;100.00
20620;BME280;10469;42.720;23.252;2022-09-16T01:56:51;94331.03;;;21.32;100.00
20620;BME280;10469;42.720;23.252;2022-09-16T01:59:45;94334.09;;;21.39;100.00
20620;BME280;10469;42.720;23.252;2022-09-16T02:02:47;94331.69;;;21.38;100.00
20620;BME280;10469;42.720;23.252;2022-09-16T02:05:10;94339.94;;;21.24;100.00
20620;BME280;10469;42.720;23.252;2022-09-16T02:07:41;94333.63;;;21.06;100.00
20620;BME280;10469;42.720;23.252;2022-09-16T02:10:16;94336.25;;;21.20;100.00
20620;BME280;10469;42.720;23.252;2022-09-16T02:12:45;94332.88;;;21.14;100.00
20620;BME280;10469;42.720;23.252;2022-09-16T02:15:15;94322.41;;;20.99;100.00
20620;BME280;10469;42.720;23.252;2022-09-16T02:17:50;94351.28;;;21.00;100.00
20620;BME280;10469;42.720;23.252;2022-09-16T02:20:22;94342.78;;;21.10;100.00
20620;BME280;10469;42.720;23.252;2022-09-16T02:22:55;94343.03;;;21.31;100.00
20620;BME280;10469;42.720;23.252;2022-09-16T02:25:22;94342.03;;;21.18;100.00
20620;BME280;10469;42.720;23.252;2022-09-16T02:27:49;94343.34;;;21.29;100.00
20620;BME280;10469;42.720;23.252;2022-09-16T02:30:18;94337.91;;;21.29;100.00
20620;BME280;10469;42.720;23.252;2022-09-16T02:32:46;94345.47;;;21.33;100.00
20620;BME280;10469;42.720;23.252;2022-09-16T02:35:18;94350.06;;;21.23;100.00
20620;BME280;10469;42.720;23.252;2022-09-16T02:40:28;94348.03;;;20.98;100.00
20620;BME280;10469;42.720;23.252;2022-09-16T02:42:57;94341.69;;;20.71;100.00
20620;BME280;10469;42.720;23.252;2022-09-16T02:54:31;94349.59;;;20.82;100.00
20620;BME280;10469;42.720;23.252;2022-09-16T02:56:49;94358.59;;;20.91;100.00
20620;BME280;10469;42.720;23.252;2022-09-16T02:59:15;94370.56;;;21.12;100.00
20620;BME280;10469;42.720;23.252;2022-09-16T03:01:45;94360.31;;;21.18;100.00
20620;BME280;10469;42.720;23.252;2022-09-16T03:04:13;94369.47;;;21.22;100.00
20620;BME280;10469;42.720;23.252;2022-09-16T03:06:39;94352.03;;;20.92;100.00
20620;BME280;10469;42.720;23.252;2022-09-16T03:09:15;94381.22;;;20.91;100.00
20620;BME280;10469;42.720;23.252;2022-09-16T03:28:51;94390.34;;;20.42;100.00
20620;BME280;10469;42.720;23.252;2022-09-16T03:31:36;94378.50;;;20.46;100.00
20620;BME280;10469;42.720;23.252;2022-09-16T03:34:30;94364.16;;;20.32;100.00
20620;BME280;10469;42.720;23.252;2022-09-16T03:37:06;94384.34;;;20.31;100.00
20620;BME280;10469;42.720;23.252;2022-09-16T03:39:33;94376.19;;;20.31;100.00
20620;BME280;10469;42.720;23.252;2022-09-16T03:42:01;94372.84;;;20.34;100.00
20620;BME280;10469;42.720;23.252;2022-09-16T03:44:33;94365.91;;;20.50;100.00
20620;BME280;10469;42.720;23.252;2022-09-16T03:46:59;94369.47;;;20.37;100.00
20620;BME280;10469;42.720;23.252;2022-09-16T03:49:24;94362.50;;;20.45;100.00
20620;BME280;10469;42.720;23.252;2022-09-16T03:51:49;94352.59;;;20.26;100.00
20620;BME280;10469;42.720;23.252;2022-09-16T03:54:15;94365.84;;;20.19;100.00
20620;BME280;10469;42.720;23.252;2022-09-16T03:56:40;94355.44;;;19.99;100.00
20620;BME280;10469;42.720;23.252;2022-09-16T03:59:06;94382.22;;;20.05;100.00
20620;BME280;10469;42.720;23.252;2022-09-16T04:01:31;94386.63;;;20.15;100.00
20620;BME280;10469;42.720;23.252;2022-09-16T04:03:56;94388.22;;;20.16;100.00
20620;BME280;10469;42.720;23.252;2022-09-16T04:06:22;94385.34;;;20.13;100.00
20620;BME280;10469;42.720;23.252;2022-09-16T04:08:47;94375.44;;;20.17;100.00
20620;BME280;10469;42.720;23.252;2022-09-16T04:11:14;94364.16;;;20.32;100.00
20620;BME280;10469;42.720;23.252;2022-09-16T04:13:40;94370.41;;;20.55;100.00
20620;BME280;10469;42.720;23.252;2022-09-16T04:16:05;94383.34;;;20.72;100.00
20620;BME280;10469;42.720;23.252;2022-09-16T04:18:32;94387.38;;;20.74;100.00
20620;BME280;10469;42.720;23.252;2022-09-16T04:21:00;94387.50;;;20.69;100.00
20620;BME280;10469;42.720;23.252;2022-09-16T04:23:27;94404.09;;;20.82;100.00
20620;BME280;10469;42.720;23.252;2022-09-16T04:26:01;94404.78;;;20.96;100.00
20620;BME280;10469;42.720;23.252;2022-09-16T04:28:27;94384.75;;;20.92;100.00
20620;BME280;10469;42.720;23.252;2022-09-16T04:31:01;94391.78;;;20.93;100.00
20620;BME280;10469;42.720;23.252;2022-09-16T04:33:29;94398.38;;;20.92;100.00
20620;BME280;10469;42.720;23.252;2022-09-16T04:36:01;94413.38;;;21.12;100.00
20620;BME280;10469;42.720;23.252;2022-09-16T04:38:27;94413.16;;;20.99;100.00
20620;BME280;10469;42.720;23.252;2022-09-16T04:40:59;94415.75;;;20.73;100.00
20620;BME280;10469;42.720;23.252;2022-09-16T04:43:25;94418.16;;;20.16;100.00
20620;BME280;10469;42.720;23.252;2022-09-16T04:45:50;94426.00;;;19.95;100.00
20620;BME280;10469;42.720;23.252;2022-09-16T04:48:16;94419.03;;;20.03;100.00
20620;BME280;10469;42.720;23.252;2022-09-16T04:50:42;94428.88;;;20.49;100.00
20620;BME280;10469;42.720;23.252;2022-09-16T04:53:08;94425.00;;;20.72;100.00
20620;BME280;10469;42.720;23.252;2022-09-16T04:55:33;94414.91;;;20.95;100.00
20620;BME280;10469;42.720;23.252;2022-09-16T04:57:59;94412.44;;;21.56;100.00
20620;BME280;10469;42.720;23.252;2022-09-16T05:00:25;94409.25;;;21.71;100.00
20620;BME280;10469;42.720;23.252;2022-09-16T05:02:51;94388.75;;;22.00;100.00
20620;BME280;10469;42.720;23.252;2022-09-16T05:05:19;94399.28;;;21.58;100.00
20620;BME280;10469;42.720;23.252;2022-09-16T05:07:45;94405.16;;;22.35;100.00
20620;BME280;10469;42.720;23.252;2022-09-16T05:10:11;94407.78;;;23.13;97.46
20620;BME280;10469;42.720;23.252;2022-09-16T05:12:36;94394.03;;;23.30;95.96
20620;BME280;10469;42.720;23.252;2022-09-16T05:15:02;94404.66;;;23.32;93.94
20620;BME280;10469;42.720;23.252;2022-09-16T05:17:29;94406.78;;;24.15;94.71
20620;BME280;10469;42.720;23.252;2022-09-16T05:19:55;94412.06;;;25.40;86.31
20620;BME280;10469;42.720;23.252;2022-09-16T05:22:20;94403.78;;;26.38;77.70
20620;BME280;10469;42.720;23.252;2022-09-16T05:24:46;94403.38;;;27.08;71.40
20620;BME280;10469;42.720;23.252;2022-09-16T05:27:11;94394.75;;;27.85;68.21
20620;BME280;10469;42.720;23.252;2022-09-16T05:29:37;94382.69;;;29.03;59.72
20620;BME280;10469;42.720;23.252;2022-09-16T05:32:02;94388.84;;;28.77;56.68
20620;BME280;10469;42.720;23.252;2022-09-16T05:34:28;94379.53;;;27.91;60.62
20620;BME280;10469;42.720;23.252;2022-09-16T05:36:54;94383.53;;;27.78;61.13
20620;BME280;10469;42.720;23.252;2022-09-16T05:39:21;94383.44;;;26.55;65.60
20620;BME280;10469;42.720;23.252;2022-09-16T05:41:47;94390.34;;;25.72;73.69
20620;BME280;10469;42.720;23.252;2022-09-16T05:44:13;94369.75;;;25.29;77.83
20620;BME280;10469;42.720;23.252;2022-09-16T05:46:39;94384.97;;;25.26;73.54
20620;BME280;10469;42.720;23.252;2022-09-16T05:49:06;94367.56;;;25.47;77.91
20620;BME280;10469;42.720;23.252;2022-09-16T05:51:32;94374.47;;;26.30;74.49
20620;BME280;10469;42.720;23.252;2022-09-16T05:53:58;94374.22;;;26.47;69.15
20620;BME280;10469;42.720;23.252;2022-09-16T05:56:26;94382.78;;;27.97;63.40
20620;BME280;10469;42.720;23.252;2022-09-16T05:58:53;94386.38;;;27.50;60.39
20620;BME280;10469;42.720;23.252;2022-09-16T06:01:21;94383.22;;;26.60;66.27
20620;BME280;10469;42.720;23.252;2022-09-16T06:03:48;94367.19;;;27.22;62.56
20620;BME280;10469;42.720;23.252;2022-09-16T06:06:23;94385.88;;;28.85;55.40
20620;BME280;10469;42.720;23.252;2022-09-16T06:08:50;94381.19;;;28.31;55.66
20620;BME280;10469;42.720;23.252;2022-09-16T06:11:16;94379.31;;;29.82;51.11
20620;BME280;10469;42.720;23.252;2022-09-16T06:13:42;94374.16;;;29.34;49.92
20620;BME280;10469;42.720;23.252;2022-09-16T06:16:08;94378.00;;;31.22;45.04
20620;BME280;10469;42.720;23.252;2022-09-16T06:18:34;94367.44;;;33.26;40.10
20620;BME280;10469;42.720;23.252;2022-09-16T06:21:07;94371.22;;;29.69;45.62
20620;BME280;10469;42.720;23.252;2022-09-16T06:23:34;94368.75;;;28.37;48.21
20620;BME280;10469;42.720;23.252;2022-09-16T06:26:08;94374.38;;;28.25;49.80
20620;BME280;10469;42.720;23.252;2022-09-16T06:28:34;94367.06;;;27.97;52.50
20620;BME280;10469;42.720;23.252;2022-09-16T06:31:14;94356.56;;;29.92;47.93
20620;BME280;10469;42.720;23.252;2022-09-16T06:33:40;94352.34;;;27.58;53.71
20620;BME280;10469;42.720;23.252;2022-09-16T06:36:08;94364.03;;;26.48;57.44
20620;BME280;10469;42.720;23.252;2022-09-16T06:38:34;94365.94;;;27.83;54.48
20620;BME280;10469;42.720;23.252;2022-09-16T06:41:02;94368.94;;;29.06;49.30
20620;BME280;10469;42.720;23.252;2022-09-16T06:43:28;94373.47;;;30.40;46.03
20620;BME280;10469;42.720;23.252;2022-09-16T06:46:05;94368.66;;;28.53;49.30
20620;BME280;10469;42.720;23.252;2022-09-16T06:48:32;94378.34;;;30.20;45.79
20620;BME280;10469;42.720;23.252;2022-09-16T06:51:01;94381.72;;;28.95;47.48
20620;BME280;10469;42.720;23.252;2022-09-16T06:53:27;94375.59;;;28.63;48.20
20620;BME280;10469;42.720;23.252;2022-09-16T06:55:53;94379.13;;;29.48;46.41
20620;BME280;10469;42.720;23.252;2022-09-16T06:58:19;94377.22;;;30.55;44.81
20620;BME280;10469;42.720;23.252;2022-09-16T07:00:45;94370.81;;;31.14;42.43
20620;BME280;10469;42.720;23.252;2022-09-16T07:03:10;94364.53;;;32.83;39.45
20620;BME280;10469;42.720;23.252;2022-09-16T07:05:36;94377.41;;;31.40;40.56
20620;BME280;10469;42.720;23.252;2022-09-16T07:08:01;94389.94;;;31.27;41.74
20620;BME280;10469;42.720;23.252;2022-09-16T07:10:27;94364.84;;;31.12;40.47
20620;BME280;10469;42.720;23.252;2022-09-16T07:12:52;94373.53;;;31.48;40.81
20620;BME280;10469;42.720;23.252;2022-09-16T07:15:18;94379.25;;;32.25;40.07
20620;BME280;10469;42.720;23.252;2022-09-16T07:17:43;94380.06;;;32.21;40.22
20620;BME280;10469;42.720;23.252;2022-09-16T07:20:09;94365.53;;;31.84;40.03
20620;BME280;10469;42.720;23.252;2022-09-16T07:22:34;94373.31;;;30.03;44.27
20620;BME280;10469;42.720;23.252;2022-09-16T07:25:00;94369.59;;;30.48;43.01
20620;BME280;10469;42.720;23.252;2022-09-16T07:27:25;94361.50;;;32.36;39.97
20620;BME280;10469;42.720;23.252;2022-09-16T07:29:51;94369.63;;;31.53;40.24
20620;BME280;10469;42.720;23.252;2022-09-16T07:32:18;94363.13;;;33.46;38.99
20620;BME280;10469;42.720;23.252;2022-09-16T07:34:44;94375.19;;;32.74;38.00
20620;BME280;10469;42.720;23.252;2022-09-16T07:37:09;94371.22;;;32.05;39.45
20620;BME280;10469;42.720;23.252;2022-09-16T07:39:35;94363.53;;;31.36;41.15
20620;BME280;10469;42.720;23.252;2022-09-16T07:42:00;94344.03;;;31.70;39.82
20620;BME280;10469;42.720;23.252;2022-09-16T07:44:28;94329.19;;;31.07;41.02
20620;BME280;10469;42.720;23.252;2022-09-16T07:46:53;94340.50;;;30.61;42.54
20620;BME280;10469;42.720;23.252;2022-09-16T07:49:19;94346.31;;;32.09;40.30
20620;BME280;10469;42.720;23.252;2022-09-16T07:51:44;94345.28;;;31.80;40.02
20620;BME280;10469;42.720;23.252;2022-09-16T07:54:15;94349.28;;;31.86;39.20
20620;BME280;10469;42.720;23.252;2022-09-16T07:56:41;94349.75;;;31.95;40.31
20620;BME280;10469;42.720;23.252;2022-09-16T07:59:11;94337.16;;;32.85;39.60
20620;BME280;10469;42.720;23.252;2022-09-16T08:01:37;94337.84;;;31.43;41.03
20620;BME280;10469;42.720;23.252;2022-09-16T08:04:03;94331.09;;;31.85;40.75
20620;BME280;10469;42.720;23.252;2022-09-16T08:06:30;94330.81;;;31.53;40.38
20620;BME280;10469;42.720;23.252;2022-09-16T08:08:59;94320.56;;;33.06;37.89
20620;BME280;10469;42.720;23.252;2022-09-16T08:11:29;94327.78;;;33.50;36.89
20620;BME280;10469;42.720;23.252;2022-09-16T08:13:59;94322.22;;;33.79;36.31
20620;BME280;10469;42.720;23.252;2022-09-16T08:16:24;94330.16;;;33.91;36.90
20620;BME280;10469;42.720;23.252;2022-09-16T08:18:53;94319.88;;;32.33;38.46
20620;BME280;10469;42.720;23.252;2022-09-16T08:21:21;94318.25;;;33.44;37.73
20620;BME280;10469;42.720;23.252;2022-09-16T08:23:47;94311.31;;;31.42;39.71
20620;BME280;10469;42.720;23.252;2022-09-16T08:26:15;94303.47;;;32.03;39.90
20620;BME280;10469;42.720;23.252;2022-09-16T08:28:43;94317.81;;;31.60;39.07
20620;BME280;10469;42.720;23.252;2022-09-16T08:31:09;94324.84;;;31.06;40.88
20620;BME280;10469;42.720;23.252;2022-09-16T08:33:38;94301.84;;;31.02;41.25
20620;BME280;10469;42.720;23.252;2022-09-16T08:36:12;94307.75;;;30.03;43.40
20620;BME280;10469;42.720;23.252;2022-09-16T08:38:39;94310.06;;;30.58;42.79
20620;BME280;10469;42.720;23.252;2022-09-16T08:44:15;94298.06;;;28.91;46.49
20620;BME280;10469;42.720;23.252;2022-09-16T08:46:53;94302.13;;;28.97;48.44
20620;BME280;10469;42.720;23.252;2022-09-16T08:51:51;94289.69;;;28.64;48.46
20620;BME280;10469;42.720;23.252;2022-09-16T08:54:31;94292.44;;;29.30;47.42
20620;BME280;10469;42.720;23.252;2022-09-16T08:57:02;94300.47;;;29.38;47.08
20620;BME280;10469;42.720;23.252;2022-09-16T08:59:34;94309.84;;;28.45;48.70
20620;BME280;10469;42.720;23.252;2022-09-16T09:02:36;94309.63;;;27.99;50.98
20620;BME280;10469;42.720;23.252;2022-09-16T09:05:15;94305.19;;;27.60;53.79
20620;BME280;10469;42.720;23.252;2022-09-16T09:08:06;94298.44;;;26.94;56.06
20620;BME280;10469;42.720;23.252;2022-09-16T09:10:54;94307.13;;;27.75;53.82
20620;BME280;10469;42.720;23.252;2022-09-16T09:13:38;94312.09;;;28.05;53.26
20620;BME280;10469;42.720;23.252;2022-09-16T09:27:41;94302.16;;;27.49;55.89
20620;BME280;10469;42.720;23.252;2022-09-16T09:30:20;94306.47;;;28.36;53.85
20620;BME280;10469;42.720;23.252;2022-09-16T09:41:26;94303.69;;;27.46;57.29
20620;BME280;10469;42.720;23.252;2022-09-16T09:44:25;94302.66;;;27.19;59.33
20620;BME280;10469;42.720;23.252;2022-09-16T09:46:55;94305.53;;;27.58;59.23
20620;BME280;10469;42.720;23.252;2022-09-16T09:49:35;94325.59;;;27.59;59.37
20620;BME280;10469;42.720;23.252;2022-09-16T09:52:15;94331.13;;;27.11;64.83
20620;BME280;10469;42.720;23.252;2022-09-16T09:54:45;94310.44;;;26.86;69.46
20620;BME280;10469;42.720;23.252;2022-09-16T09:59:51;94351.06;;;26.48;77.44
20620;BME280;10469;42.720;23.252;2022-09-16T10:02:21;94356.22;;;25.97;85.75
20620;BME280;10469;42.720;23.252;2022-09-16T10:04:47;94378.22;;;25.97;91.82
20620;BME280;10469;42.720;23.252;2022-09-16T10:07:16;94379.91;;;26.02;94.14
20620;BME280;10469;42.720;23.252;2022-09-16T10:10:04;94395.72;;;26.05;93.17
20620;BME280;10469;42.720;23.252;2022-09-16T10:12:36;94383.84;;;25.52;100.00
20620;BME280;10469;42.720;23.252;2022-09-16T10:15:02;94412.19;;;25.32;100.00
20620;BME280;10469;42.720;23.252;2022-09-16T10:17:30;94449.69;;;25.07;100.00
20620;BME280;10469;42.720;23.252;2022-09-16T10:19:59;94479.25;;;24.89;100.00
20620;BME280;10469;42.720;23.252;2022-09-16T10:22:30;94501.59;;;24.78;100.00
20620;BME280;10469;42.720;23.252;2022-09-16T10:25:22;94506.81;;;23.36;100.00
20620;BME280;10469;42.720;23.252;2022-09-16T10:28:20;94520.53;;;22.58;100.00
20620;BME280;10469;42.720;23.252;2022-09-16T10:30:51;94528.09;;;22.35;100.00
20620;BME280;10469;42.720;23.252;2022-09-16T10:33:33;94514.69;;;22.07;100.00
20620;BME280;10469;42.720;23.252;2022-09-16T10:36:06;94520.53;;;21.83;100.00
20620;BME280;10469;42.720;23.252;2022-09-16T10:41:06;94535.78;;;21.44;100.00
20620;BME280;10469;42.720;23.252;2022-09-16T10:43:32;94541.25;;;21.44;100.00
20620;BME280;10469;42.720;23.252;2022-09-16T10:45:59;94535.41;;;21.15;100.00
20620;BME280;10469;42.720;23.252;2022-09-16T10:48:27;94527.00;;;21.02;100.00
20620;BME280;10469;42.720;23.252;2022-09-16T10:50:59;94518.28;;;20.92;100.00
20620;BME280;10469;42.720;23.252;2022-09-16T10:56:04;94526.84;;;20.99;100.00
20620;BME280;10469;42.720;23.252;2022-09-16T10:58:30;94502.06;;;20.87;100.00
20620;BME280;10469;42.720;23.252;2022-09-16T11:03:59;94472.91;;;21.18;100.00
20620;BME280;10469;42.720;23.252;2022-09-16T11:06:42;94447.56;;;21.49;100.00
20620;BME280;10469;42.720;23.252;2022-09-16T11:14:38;94408.00;;;22.99;100.00
20620;BME280;10469;42.720;23.252;2022-09-16T11:17:30;94401.31;;;23.17;100.00
20620;BME280;10469;42.720;23.252;2022-09-16T11:31:08;94346.91;;;26.42;100.00
20620;BME280;10469;42.720;23.252;2022-09-16T11:34:03;94347.34;;;27.00;100.00
20620;BME280;10469;42.720;23.252;2022-09-16T11:39:34;94345.34;;;25.03;100.00
20620;BME280;10469;42.720;23.252;2022-09-16T11:50:25;94334.50;;;27.68;100.00
20620;BME280;10469;42.720;23.252;2022-09-16T11:55:46;94317.03;;;26.41;100.00
20620;BME280;10469;42.720;23.252;2022-09-16T12:00:56;94322.59;;;25.76;100.00
20620;BME280;10469;42.720;23.252;2022-09-16T12:03:33;94335.97;;;26.02;100.00
20620;BME280;10469;42.720;23.252;2022-09-16T12:06:09;94361.56;;;24.96;100.00
20620;BME280;10469;42.720;23.252;2022-09-16T12:11:22;94350.84;;;24.37;100.00
20620;BME280;10469;42.720;23.252;2022-09-16T12:13:55;94347.09;;;24.62;100.00
20620;BME280;10469;42.720;23.252;2022-09-16T12:16:32;94353.75;;;23.39;100.00
20620;BME280;10469;42.720;23.252;2022-09-16T12:19:05;94352.72;;;23.52;100.00
20620;BME280;10469;42.720;23.252;2022-09-16T12:21:58;94348.25;;;23.48;100.00
20620;BME280;10469;42.720;23.252;2022-09-16T12:24:36;94356.53;;;23.31;100.00
20620;BME280;10469;42.720;23.252;2022-09-16T12:29:59;94352.13;;;23.09;100.00
20620;BME280;10469;42.720;23.252;2022-09-16T12:35:23;94350.38;;;23.42;100.00
20620;BME280;10469;42.720;23.252;2022-09-16T12:37:53;94357.22;;;23.27;100.00
20620;BME280;10469;42.720;23.252;2022-09-16T12:48:44;94398.72;;;22.65;100.00
20620;BME280;10469;42.720;23.252;2022-09-16T12:51:43;94400.78;;;22.68;100.00
20620;BME280;10469;42.720;23.252;2022-09-16T13:00:24;94433.91;;;22.23;100.00
20620;BME280;10469;42.720;23.252;2022-09-16T13:02:53;94437.09;;;22.08;100.00
20620;BME280;10469;42.720;23.252;2022-09-16T13:05:29;94444.00;;;22.05;100.00
20620;BME280;10469;42.720;23.252;2022-09-16T13:08:01;94462.06;;;21.75;100.00
20620;BME280;10469;42.720;23.252;2022-09-16T13:10:39;94450.34;;;21.66;100.00
20620;BME280;10469;42.720;23.252;2022-09-16T13:13:06;94472.53;;;21.82;100.00
20620;BME280;10469;42.720;23.252;2022-09-16T13:15:34;94487.16;;;21.15;100.00
20620;BME280;10469;42.720;23.252;2022-09-16T13:20:51;94491.66;;;21.42;100.00
20620;BME280;10469;42.720;23.252;2022-09-16T13:23:30;94483.53;;;20.75;100.00
20620;BME280;10469;42.720;23.252;2022-09-16T13:26:06;94490.03;;;20.88;100.00
20620;BME280;10469;42.720;23.252;2022-09-16T13:33:35;94470.59;;;21.03;100.00
20620;BME280;10469;42.720;23.252;2022-09-16T13:39:01;94424.75;;;21.45;100.00
20620;BME280;10469;42.720;23.252;2022-09-16T13:41:35;94405.88;;;21.66;100.00
20620;BME280;10469;42.720;23.252;2022-09-16T13:46:52;94345.91;;;22.18;100.00
20620;BME280;10469;42.720;23.252;2022-09-16T13:49:24;94355.69;;;22.27;100.00
20620;BME280;10469;42.720;23.252;2022-09-16T13:51:52;94364.03;;;22.31;100.00
20620;BME280;10469;42.720;23.252;2022-09-16T13:54:25;94351.84;;;22.28;100.00
20620;BME280;10469;42.720;23.252;2022-09-16T14:02:45;94354.06;;;21.83;100.00
20620;BME280;10469;42.720;23.252;2022-09-16T14:05:49;94355.66;;;22.45;100.00
20620;BME280;10469;42.720;23.252;2022-09-16T14:14:12;94368.22;;;22.37;100.00
20620;BME280;10469;42.720;23.252;2022-09-16T14:16:41;94409.03;;;22.51;100.00
20620;BME280;10469;42.720;23.252;2022-09-16T14:21:45;94404.50;;;22.03;100.00
20620;BME280;10469;42.720;23.252;2022-09-16T14:24:15;94390.34;;;22.53;100.00
20620;BME280;10469;42.720;23.252;2022-09-16T14:26:56;94376.19;;;22.68;100.00
20620;BME280;10469;42.720;23.252;2022-09-16T14:29:22;94370.13;;;22.63;100.00
20620;BME280;10469;42.720;23.252;2022-09-16T14:31:50;94343.13;;;22.44;100.00
20620;BME280;10469;42.720;23.252;2022-09-16T14:34:36;94360.47;;;22.48;100.00
20620;BME280;10469;42.720;23.252;2022-09-16T14:37:03;94350.50;;;22.52;100.00
20620;BME280;10469;42.720;23.252;2022-09-16T14:39:34;94356.50;;;22.11;100.00
20620;BME280;10469;42.720;23.252;2022-09-16T14:42:06;94356.31;;;21.72;100.00
20620;BME280;10469;42.720;23.252;2022-09-16T14:44:35;94367.34;;;21.59;100.00
20620;BME280;10469;42.720;23.252;2022-09-16T14:47:24;94376.53;;;21.89;100.00
20620;BME280;10469;42.720;23.252;2022-09-16T14:49:56;94336.72;;;21.13;100.00
20620;BME280;10469;42.720;23.252;2022-09-16T14:52:28;94355.50;;;21.63;100.00
20620;BME280;10469;42.720;23.252;2022-09-16T14:54:57;94361.47;;;22.17;100.00
20620;BME280;10469;42.720;23.252;2022-09-16T14:57:27;94366.28;;;22.38;100.00
20620;BME280;10469;42.720;23.252;2022-09-16T15:00:00;94376.41;;;22.37;100.00
20620;BME280;10469;42.720;23.252;2022-09-16T15:02:41;94344.25;;;22.51;100.00
20620;BME280;10469;42.720;23.252;2022-09-16T15:05:34;94368.50;;;22.53;100.00
20620;BME280;10469;42.720;23.252;2022-09-16T15:08:17;94361.88;;;22.80;100.00
20620;BME280;10469;42.720;23.252;2022-09-16T15:10:48;94368.94;;;22.81;100.00
20620;BME280;10469;42.720;23.252;2022-09-16T15:13:16;94354.66;;;22.75;100.00
20620;BME280;10469;42.720;23.252;2022-09-16T15:15:51;94350.09;;;22.97;100.00
20620;BME280;10469;42.720;23.252;2022-09-16T15:21:41;94328.56;;;22.87;100.00
20620;BME280;10469;42.720;23.252;2022-09-16T15:23:40;94265.88;;;22.35;100.00
20620;BME280;10469;42.720;23.252;2022-09-16T15:26:16;94259.00;;;22.11;100.00
20620;BME280;10469;42.720;23.252;2022-09-16T15:28:54;94292.25;;;22.22;100.00
20620;BME280;10469;42.720;23.252;2022-09-16T15:31:38;94288.88;;;21.99;100.00
20620;BME280;10469;42.720;23.252;2022-09-16T15:34:24;94300.59;;;22.17;100.00
20620;BME280;10469;42.720;23.252;2022-09-16T15:36:52;94320.50;;;22.00;100.00
20620;BME280;10469;42.720;23.252;2022-09-16T15:44:47;94298.00;;;21.34;100.00
20620;BME280;10469;42.720;23.252;2022-09-16T15:49:52;94287.06;;;20.85;100.00
20620;BME280;10469;42.720;23.252;2022-09-16T15:52:19;94287.41;;;20.84;100.00
20620;BME280;10469;42.720;23.252;2022-09-16T15:54:49;94282.56;;;20.80;100.00
20620;BME280;10469;42.720;23.252;2022-09-16T16:00:06;94274.94;;;20.29;100.00
20620;BME280;10469;42.720;23.252;2022-09-16T16:07:49;94275.66;;;20.12;100.00
20620;BME280;10469;42.720;23.252;2022-09-16T16:10:26;94263.97;;;19.89;100.00
20620;BME280;10469;42.720;23.252;2022-09-16T16:12:53;94271.13;;;19.85;100.00
20620;BME280;10469;42.720;23.252;2022-09-16T16:15:39;94275.09;;;20.01;100.00
20620;BME280;10469;42.720;23.252;2022-09-16T16:18:07;94275.31;;;19.83;100.00